Flight Track Log - Related Links

Times and Time Zones

All times are in EDT time to prevent confusion due to time zone crossing. See the CPZ5843 flight status page for this flight to view local times or setup timezone preferences in your user account.

Time Position Orientation Groundspeed Altitude Reporting Facility
EDT Latitude Longitude Course Direction KTS MPH feet Rate Location/Type
Thu 10:40:17 PM 42.2017 -83.3553 71° East 151 174 1,400  Level Cleveland Center
Thu 10:41:24 PM 42.1433 -83.3472 174° South 231 266 3,200 2,250 Climbing Cleveland Center
Thu 10:42:25 PM 42.0900 -83.3142 155° Southeast 237 273 6,200 2,338 Climbing Cleveland Center
Thu 10:43:00 PM 42.2994 -82.8363 75° East  Level FlightAware Approximate
Thu 10:43:40 PM 42.1178 -83.1978 72° East 343 395 8,500  Level Cleveland Center
Thu 10:44:00 PM 42.3210 -82.7068 82° East  Level FlightAware Approximate
Thu 10:44:40 PM 42.1489 -83.1067 65° Northeast 309 356 10,600  Level Cleveland Center
Thu 10:45:00 PM 42.3353 -82.5754 71° East  Level FlightAware Approximate
Thu 10:45:40 PM 42.1892 -82.9878 65° Northeast 314 361 12,100  Level Cleveland Center
Thu 10:46:40 PM 42.2311 -82.8631 66° East 335 386 14,100 1,950 Climbing Cleveland Center
Thu 10:47:40 PM 42.2756 -82.7328 65° Northeast 362 417 16,000 1,800 Climbing Cleveland Center
Thu 10:48:40 PM 42.3194 -82.5994 66° East 376 433 17,700 1,600 Climbing Cleveland Center
Thu 10:49:40 PM 42.3617 -82.4575 68° East 387 445 19,200 1,450 Climbing Cleveland Center
Thu 10:50:40 PM 42.3744 -82.3033 84° East 407 468 20,600 1,350 Climbing Cleveland Center
Thu 10:51:40 PM 42.3853 -82.1292 85° East 413 475 21,900 1,200 Climbing Cleveland Center
Thu 10:52:40 PM 42.3914 -81.9636 87° East 426 490 23,000 550 Climbing Cleveland Center
Thu 10:53:40 PM 42.4017 -81.7978 85° East 432 497 23,000  Level Cleveland Center
Thu 10:54:40 PM 42.4075 -81.6319 87° East 439 505 23,000  Level Cleveland Center
Thu 10:55:40 PM 42.4150 -81.4661 86° East 444 511 23,000  Level Cleveland Center
Thu 10:56:40 PM 42.4225 -81.3031 86° East 436 502 23,000  Level Cleveland Center
Thu 10:57:40 PM 42.4297 -81.1372 87° East 441 507 23,000  Level Cleveland Center
Thu 10:58:40 PM 42.4344 -80.9911 87° East 441 507 23,000  Level Cleveland Center
Thu 10:59:40 PM 42.4494 -80.8253 83° East 441 507 23,000  Level Cleveland Center
Thu 11:00:40 PM 42.4853 -80.6733 72° East 430 495 23,000  Level Cleveland Center
Thu 11:01:40 PM 42.5186 -80.5211 73° East 418 481 23,000  Level Cleveland Center
Thu 11:02:40 PM 42.5539 -80.3747 72° East 418 481 23,000  Level Cleveland Center
Thu 11:03:40 PM 42.5908 -80.2053 73° East 413 475 23,000  Level Cleveland Center
Thu 11:04:40 PM 42.6258 -80.0500 73° East 418 481 23,000  Level Cleveland Center
Thu 11:05:40 PM 42.6625 -79.9000 72° East 418 481 23,000  Level Cleveland Center
Thu 11:06:40 PM 42.6989 -79.7469 72° East 423 487 23,000  Level Cleveland Center
Thu 11:07:40 PM 42.7311 -79.5939 74° East 423 487 23,000 -350 Level Cleveland Center
Thu 11:08:40 PM 42.7650 -79.4378 73° East 423 487 22,300 -1,500 Descending Cleveland Center
Thu 11:09:40 PM 42.7947 -79.2844 75° East 423 487 20,000 -2,200 Descending Cleveland Center
Thu 11:10:40 PM 42.8264 -79.1367 74° East 416 479 17,900 -2,100 Descending Cleveland Center
Thu 11:11:40 PM 42.8578 -78.9886 74° East 404 465 15,800 -2,050 Descending Cleveland Center
Thu 11:12:40 PM 42.8850 -78.8519 75° East 391 450 13,800 -2,000 Descending Cleveland Center
Thu 11:13:40 PM 42.9142 -78.7150 74° East 378 435 11,800 -1,400 Descending Cleveland Center
Thu 11:14:40 PM 42.9411 -78.5867 74° East 366 421 11,000 -500 Descending Cleveland Center
Thu 11:15:40 PM 42.9639 -78.4694 75° East 355 409 10,800 -816 Descending Cleveland Center
Thu 11:16:23 PM 42.9789 -78.3783 77° East 305 351 9,600 -1,689 Descending Cleveland Center
Thu 11:17:23 PM 43.0019 -78.2725 73° East 303 349 7,900 -1,289 Descending Cleveland Center
Thu 11:18:24 PM 43.0353 -78.1689 66° East 284 327 7,000 -443 Descending Cleveland Center
Thu 11:19:25 PM 43.0769 -78.0733 59° Northeast 289 333 7,000 -313 Level Cleveland Center
Thu 11:20:19 PM 43.1125 -77.9811 62° Northeast 286 329 6,400 -1,200 Descending Cleveland Center
Thu 11:21:20 PM 43.1519 -77.8883 60° Northeast 287 330 4,700 -1,636 Descending Cleveland Center
Thu 11:22:20 PM 43.1894 -77.7956 61° Northeast 277 319 3,100 -942 Descending Cleveland Center
Thu 11:23:21 PM 43.2228 -77.7142 61° Northeast 210 242 2,800 -347 Descending Cleveland Center
Thu 11:24:21 PM 43.2108 -77.6522 105° East 175 201 2,400 -595 Descending Cleveland Center
Thu 11:25:22 PM 43.1708 -77.6342 162° South 144 166 1,600 -703 Descending Cleveland Center
Thu 11:26:29 PM 43.1403 -77.6639 215° Southwest 127 146 900 -627 Descending Cleveland Center

Login

Don't have an account? Register now (free) for customized features, flight alerts, and more!